sensor_id;sensor_type;location;lat;lon;timestamp;P1;durP1;ratioP1;P2;durP2;ratioP2
20002;SDS011;10162;41.600;23.806;2023-08-08T00:00:02;1.90;;;1.17;;
20002;SDS011;10162;41.600;23.806;2023-08-08T00:02:31;3.10;;;1.50;;
20002;SDS011;10162;41.600;23.806;2023-08-08T00:04:57;2.10;;;1.37;;
20002;SDS011;10162;41.600;23.806;2023-08-08T00:07:22;1.40;;;1.30;;
20002;SDS011;10162;41.600;23.806;2023-08-08T00:09:49;2.07;;;1.63;;
20002;SDS011;10162;41.600;23.806;2023-08-08T00:12:16;1.63;;;1.40;;
20002;SDS011;10162;41.600;23.806;2023-08-08T00:14:42;3.20;;;1.73;;
20002;SDS011;10162;41.600;23.806;2023-08-08T00:17:07;2.47;;;1.27;;
20002;SDS011;10162;41.600;23.806;2023-08-08T00:19:37;2.33;;;1.70;;
20002;SDS011;10162;41.600;23.806;2023-08-08T00:22:03;3.43;;;1.50;;
20002;SDS011;10162;41.600;23.806;2023-08-08T00:24:29;1.77;;;1.60;;
20002;SDS011;10162;41.600;23.806;2023-08-08T00:26:55;1.40;;;1.30;;
20002;SDS011;10162;41.600;23.806;2023-08-08T00:29:21;1.83;;;1.47;;
20002;SDS011;10162;41.600;23.806;2023-08-08T00:34:16;4.37;;;1.60;;
20002;SDS011;10162;41.600;23.806;2023-08-08T00:36:42;4.63;;;1.50;;
20002;SDS011;10162;41.600;23.806;2023-08-08T00:39:09;2.03;;;1.37;;
20002;SDS011;10162;41.600;23.806;2023-08-08T00:44:16;3.03;;;1.70;;
20002;SDS011;10162;41.600;23.806;2023-08-08T00:46:42;1.63;;;1.53;;
20002;SDS011;10162;41.600;23.806;2023-08-08T00:49:08;1.70;;;1.60;;
20002;SDS011;10162;41.600;23.806;2023-08-08T00:54:33;2.03;;;1.40;;
20002;SDS011;10162;41.600;23.806;2023-08-08T00:57:00;3.10;;;1.57;;
20002;SDS011;10162;41.600;23.806;2023-08-08T00:59:26;4.57;;;1.70;;
20002;SDS011;10162;41.600;23.806;2023-08-08T01:01:52;1.70;;;1.60;;
20002;SDS011;10162;41.600;23.806;2023-08-08T01:04:19;1.80;;;1.70;;
20002;SDS011;10162;41.600;23.806;2023-08-08T01:06:49;2.60;;;1.70;;
20002;SDS011;10162;41.600;23.806;2023-08-08T01:12:03;4.23;;;1.70;;
20002;SDS011;10162;41.600;23.806;2023-08-08T01:14:31;1.67;;;1.57;;
20002;SDS011;10162;41.600;23.806;2023-08-08T01:16:58;2.63;;;1.43;;
20002;SDS011;10162;41.600;23.806;2023-08-08T01:19:27;1.60;;;1.50;;
20002;SDS011;10162;41.600;23.806;2023-08-08T01:22:14;1.30;;;1.20;;
20002;SDS011;10162;41.600;23.806;2023-08-08T01:24:48;1.97;;;1.50;;
20002;SDS011;10162;41.600;23.806;2023-08-08T01:27:14;1.60;;;1.50;;
20002;SDS011;10162;41.600;23.806;2023-08-08T01:29:42;1.73;;;1.60;;
20002;SDS011;10162;41.600;23.806;2023-08-08T01:32:14;2.03;;;1.70;;
20002;SDS011;10162;41.600;23.806;2023-08-08T01:34:41;3.47;;;1.63;;
20002;SDS011;10162;41.600;23.806;2023-08-08T01:37:14;1.60;;;1.50;;
20002;SDS011;10162;41.600;23.806;2023-08-08T01:39:46;1.67;;;1.47;;
20002;SDS011;10162;41.600;23.806;2023-08-08T01:45:06;2.00;;;1.80;;
20002;SDS011;10162;41.600;23.806;2023-08-08T01:47:33;1.83;;;1.40;;
20002;SDS011;10162;41.600;23.806;2023-08-08T01:50:02;2.13;;;1.53;;
20002;SDS011;10162;41.600;23.806;2023-08-08T01:55:27;2.83;;;1.33;;
20002;SDS011;10162;41.600;23.806;2023-08-08T01:57:52;1.70;;;1.43;;
20002;SDS011;10162;41.600;23.806;2023-08-08T02:00:18;1.80;;;1.70;;
20002;SDS011;10162;41.600;23.806;2023-08-08T02:05:46;1.70;;;1.47;;
20002;SDS011;10162;41.600;23.806;2023-08-08T02:08:11;1.77;;;1.40;;
20002;SDS011;10162;41.600;23.806;2023-08-08T02:10:38;2.17;;;1.40;;
20002;SDS011;10162;41.600;23.806;2023-08-08T02:13:08;2.20;;;1.70;;
20002;SDS011;10162;41.600;23.806;2023-08-08T02:15:34;1.97;;;1.80;;
20002;SDS011;10162;41.600;23.806;2023-08-08T02:18:00;1.60;;;1.50;;
20002;SDS011;10162;41.600;23.806;2023-08-08T02:20:28;2.00;;;1.40;;
20002;SDS011;10162;41.600;23.806;2023-08-08T02:23:02;1.90;;;1.60;;
20002;SDS011;10162;41.600;23.806;2023-08-08T02:25:30;1.27;;;1.10;;
20002;SDS011;10162;41.600;23.806;2023-08-08T02:27:56;1.97;;;1.77;;
20002;SDS011;10162;41.600;23.806;2023-08-08T02:30:22;3.63;;;1.63;;
20002;SDS011;10162;41.600;23.806;2023-08-08T02:32:50;4.00;;;1.70;;
20002;SDS011;10162;41.600;23.806;2023-08-08T02:35:16;1.63;;;1.53;;
20002;SDS011;10162;41.600;23.806;2023-08-08T02:37:42;2.03;;;1.60;;
20002;SDS011;10162;41.600;23.806;2023-08-08T02:40:08;3.03;;;1.87;;
20002;SDS011;10162;41.600;23.806;2023-08-08T02:45:06;2.03;;;1.80;;
20002;SDS011;10162;41.600;23.806;2023-08-08T02:47:33;2.30;;;1.70;;
20002;SDS011;10162;41.600;23.806;2023-08-08T02:49:58;1.67;;;1.57;;
20002;SDS011;10162;41.600;23.806;2023-08-08T02:54:54;2.20;;;1.60;;
20002;SDS011;10162;41.600;23.806;2023-08-08T02:57:20;4.67;;;1.70;;
20002;SDS011;10162;41.600;23.806;2023-08-08T02:59:46;2.30;;;1.90;;
20002;SDS011;10162;41.600;23.806;2023-08-08T03:02:19;2.87;;;1.80;;
20002;SDS011;10162;41.600;23.806;2023-08-08T03:04:46;1.67;;;1.57;;
20002;SDS011;10162;41.600;23.806;2023-08-08T03:07:12;3.47;;;1.90;;
20002;SDS011;10162;41.600;23.806;2023-08-08T03:09:38;2.53;;;1.80;;
20002;SDS011;10162;41.600;23.806;2023-08-08T03:12:05;2.10;;;1.70;;
20002;SDS011;10162;41.600;23.806;2023-08-08T03:14:32;2.23;;;1.70;;
20002;SDS011;10162;41.600;23.806;2023-08-08T03:17:00;2.07;;;1.77;;
20002;SDS011;10162;41.600;23.806;2023-08-08T03:19:25;2.80;;;1.87;;
20002;SDS011;10162;41.600;23.806;2023-08-08T03:24:37;3.00;;;2.20;;
20002;SDS011;10162;41.600;23.806;2023-08-08T03:27:03;2.90;;;1.97;;
20002;SDS011;10162;41.600;23.806;2023-08-08T03:29:29;3.70;;;2.20;;
20002;SDS011;10162;41.600;23.806;2023-08-08T03:35:01;3.73;;;1.93;;
20002;SDS011;10162;41.600;23.806;2023-08-08T03:37:27;5.80;;;2.20;;
20002;SDS011;10162;41.600;23.806;2023-08-08T03:39:52;2.90;;;2.40;;
20002;SDS011;10162;41.600;23.806;2023-08-08T03:45:03;4.57;;;2.30;;
20002;SDS011;10162;41.600;23.806;2023-08-08T03:47:30;1.80;;;1.70;;
20002;SDS011;10162;41.600;23.806;2023-08-08T03:49:55;2.77;;;2.13;;
20002;SDS011;10162;41.600;23.806;2023-08-08T03:52:32;3.80;;;2.03;;
20002;SDS011;10162;41.600;23.806;2023-08-08T03:55:01;2.40;;;1.80;;
20002;SDS011;10162;41.600;23.806;2023-08-08T03:57:28;3.67;;;2.10;;
20002;SDS011;10162;41.600;23.806;2023-08-08T03:59:54;5.33;;;2.10;;
20002;SDS011;10162;41.600;23.806;2023-08-08T04:05:08;3.53;;;2.10;;
20002;SDS011;10162;41.600;23.806;2023-08-08T04:07:34;2.30;;;2.03;;
20002;SDS011;10162;41.600;23.806;2023-08-08T04:10:00;3.20;;;1.83;;
20002;SDS011;10162;41.600;23.806;2023-08-08T04:12:27;3.77;;;1.80;;
20002;SDS011;10162;41.600;23.806;2023-08-08T04:14:54;8.90;;;2.53;;
20002;SDS011;10162;41.600;23.806;2023-08-08T04:17:19;4.57;;;1.87;;
20002;SDS011;10162;41.600;23.806;2023-08-08T04:19:46;1.80;;;1.70;;
20002;SDS011;10162;41.600;23.806;2023-08-08T04:24:44;3.57;;;2.00;;
20002;SDS011;10162;41.600;23.806;2023-08-08T04:27:10;2.87;;;1.97;;
20002;SDS011;10162;41.600;23.806;2023-08-08T04:29:36;2.07;;;1.90;;
20002;SDS011;10162;41.600;23.806;2023-08-08T04:32:12;3.07;;;2.37;;
20002;SDS011;10162;41.600;23.806;2023-08-08T04:34:38;7.37;;;2.50;;
20002;SDS011;10162;41.600;23.806;2023-08-08T04:37:04;5.07;;;3.40;;
20002;SDS011;10162;41.600;23.806;2023-08-08T04:39:30;3.90;;;3.40;;
20002;SDS011;10162;41.600;23.806;2023-08-08T04:41:58;4.53;;;3.50;;
20002;SDS011;10162;41.600;23.806;2023-08-08T04:44:23;3.50;;;3.20;;
20002;SDS011;10162;41.600;23.806;2023-08-08T04:46:49;4.00;;;3.00;;
20002;SDS011;10162;41.600;23.806;2023-08-08T04:49:17;3.77;;;3.17;;
20002;SDS011;10162;41.600;23.806;2023-08-08T04:54:39;3.40;;;3.10;;
20002;SDS011;10162;41.600;23.806;2023-08-08T04:57:05;3.50;;;3.20;;
20002;SDS011;10162;41.600;23.806;2023-08-08T04:59:33;6.33;;;3.50;;
20002;SDS011;10162;41.600;23.806;2023-08-08T05:04:30;4.87;;;4.27;;
20002;SDS011;10162;41.600;23.806;2023-08-08T05:06:56;5.60;;;4.67;;
20002;SDS011;10162;41.600;23.806;2023-08-08T05:09:23;4.27;;;3.40;;
20002;SDS011;10162;41.600;23.806;2023-08-08T05:11:53;6.07;;;3.20;;
20002;SDS011;10162;41.600;23.806;2023-08-08T05:14:18;8.07;;;4.10;;
20002;SDS011;10162;41.600;23.806;2023-08-08T05:16:44;4.63;;;4.03;;
20002;SDS011;10162;41.600;23.806;2023-08-08T05:19:11;16.30;;;10.87;;
20002;SDS011;10162;41.600;23.806;2023-08-08T05:24:42;5.40;;;4.13;;
20002;SDS011;10162;41.600;23.806;2023-08-08T05:27:07;5.67;;;4.30;;
20002;SDS011;10162;41.600;23.806;2023-08-08T05:29:33;6.00;;;4.23;;
20002;SDS011;10162;41.600;23.806;2023-08-08T05:32:05;4.97;;;3.70;;
20002;SDS011;10162;41.600;23.806;2023-08-08T05:34:33;7.33;;;4.90;;
20002;SDS011;10162;41.600;23.806;2023-08-08T05:36:59;4.43;;;3.67;;
20002;SDS011;10162;41.600;23.806;2023-08-08T05:39:25;3.63;;;3.30;;
20002;SDS011;10162;41.600;23.806;2023-08-08T05:44:24;3.90;;;3.03;;
20002;SDS011;10162;41.600;23.806;2023-08-08T05:46:50;3.27;;;2.97;;
20002;SDS011;10162;41.600;23.806;2023-08-08T05:49:16;6.33;;;3.40;;
20002;SDS011;10162;41.600;23.806;2023-08-08T05:54:19;3.60;;;3.07;;
20002;SDS011;10162;41.600;23.806;2023-08-08T05:56:45;6.50;;;2.77;;
20002;SDS011;10162;41.600;23.806;2023-08-08T05:59:12;2.93;;;2.53;;
20002;SDS011;10162;41.600;23.806;2023-08-08T06:01:38;2.97;;;2.50;;
20002;SDS011;10162;41.600;23.806;2023-08-08T06:04:04;4.33;;;2.53;;
20002;SDS011;10162;41.600;23.806;2023-08-08T06:06:30;5.40;;;2.13;;
20002;SDS011;10162;41.600;23.806;2023-08-08T06:08:56;2.70;;;2.50;;
20002;SDS011;10162;41.600;23.806;2023-08-08T06:11:35;3.80;;;2.47;;
20002;SDS011;10162;41.600;23.806;2023-08-08T06:14:06;2.73;;;2.43;;
20002;SDS011;10162;41.600;23.806;2023-08-08T06:16:31;3.40;;;2.17;;
20002;SDS011;10162;41.600;23.806;2023-08-08T06:18:57;3.17;;;2.80;;
20002;SDS011;10162;41.600;23.806;2023-08-08T06:21:23;3.50;;;3.00;;
20002;SDS011;10162;41.600;23.806;2023-08-08T06:23:49;5.77;;;3.50;;
20002;SDS011;10162;41.600;23.806;2023-08-08T06:26:15;3.90;;;3.03;;
20002;SDS011;10162;41.600;23.806;2023-08-08T06:28:41;3.60;;;2.90;;
20002;SDS011;10162;41.600;23.806;2023-08-08T06:31:06;4.10;;;2.80;;
20002;SDS011;10162;41.600;23.806;2023-08-08T06:33:32;3.63;;;2.60;;
20002;SDS011;10162;41.600;23.806;2023-08-08T06:35:58;3.20;;;2.20;;
20002;SDS011;10162;41.600;23.806;2023-08-08T06:38:24;3.10;;;2.40;;
20002;SDS011;10162;41.600;23.806;2023-08-08T06:43:28;2.40;;;2.20;;
20002;SDS011;10162;41.600;23.806;2023-08-08T06:45:54;4.67;;;2.83;;
20002;SDS011;10162;41.600;23.806;2023-08-08T06:48:21;3.90;;;3.50;;
20002;SDS011;10162;41.600;23.806;2023-08-08T06:51:06;5.37;;;3.50;;
20002;SDS011;10162;41.600;23.806;2023-08-08T06:53:32;4.53;;;4.00;;
20002;SDS011;10162;41.600;23.806;2023-08-08T06:55:58;4.80;;;3.77;;
20002;SDS011;10162;41.600;23.806;2023-08-08T06:58:24;5.00;;;2.50;;
20002;SDS011;10162;41.600;23.806;2023-08-08T07:00:50;3.50;;;2.80;;
20002;SDS011;10162;41.600;23.806;2023-08-08T07:03:16;4.77;;;3.10;;
20002;SDS011;10162;41.600;23.806;2023-08-08T07:05:42;5.00;;;2.60;;
20002;SDS011;10162;41.600;23.806;2023-08-08T07:08:08;4.73;;;2.90;;
20002;SDS011;10162;41.600;23.806;2023-08-08T07:10:34;3.50;;;2.83;;
20002;SDS011;10162;41.600;23.806;2023-08-08T07:13:03;4.18;;;3.78;;
20002;SDS011;10162;41.600;23.806;2023-08-08T07:15:29;6.53;;;4.28;;
20002;SDS011;10162;41.600;23.806;2023-08-08T07:17:56;3.50;;;2.65;;
20002;SDS011;10162;41.600;23.806;2023-08-08T07:20:21;4.60;;;2.72;;
20002;SDS011;10162;41.600;23.806;2023-08-08T07:23:00;3.85;;;2.25;;
20002;SDS011;10162;41.600;23.806;2023-08-08T07:25:26;4.57;;;2.42;;
20002;SDS011;10162;41.600;23.806;2023-08-08T07:27:52;1.88;;;1.58;;
20002;SDS011;10162;41.600;23.806;2023-08-08T07:30:18;1.80;;;1.67;;
20002;SDS011;10162;41.600;23.806;2023-08-08T07:35:16;2.92;;;1.55;;
20002;SDS011;10162;41.600;23.806;2023-08-08T07:37:42;1.30;;;1.20;;
20002;SDS011;10162;41.600;23.806;2023-08-08T07:40:15;1.20;;;1.10;;
20002;SDS011;10162;41.600;23.806;2023-08-08T07:45:33;1.30;;;1.20;;
20002;SDS011;10162;41.600;23.806;2023-08-08T07:47:58;1.88;;;1.77;;
20002;SDS011;10162;41.600;23.806;2023-08-08T07:50:24;2.22;;;1.98;;
20002;SDS011;10162;41.600;23.806;2023-08-08T07:53:04;2.00;;;1.80;;
20002;SDS011;10162;41.600;23.806;2023-08-08T07:55:30;2.72;;;2.03;;
20002;SDS011;10162;41.600;23.806;2023-08-08T07:57:55;2.75;;;1.67;;
20002;SDS011;10162;41.600;23.806;2023-08-08T08:00:22;5.05;;;1.75;;
20002;SDS011;10162;41.600;23.806;2023-08-08T08:02:48;3.28;;;1.80;;
20002;SDS011;10162;41.600;23.806;2023-08-08T08:05:13;2.95;;;1.90;;
20002;SDS011;10162;41.600;23.806;2023-08-08T08:07:39;2.15;;;1.90;;
20002;SDS011;10162;41.600;23.806;2023-08-08T08:10:07;2.58;;;1.70;;
20002;SDS011;10162;41.600;23.806;2023-08-08T08:12:34;1.75;;;1.60;;
20002;SDS011;10162;41.600;23.806;2023-08-08T08:15:02;1.70;;;1.60;;
20002;SDS011;10162;41.600;23.806;2023-08-08T08:17:28;3.10;;;1.63;;
20002;SDS011;10162;41.600;23.806;2023-08-08T08:19:54;1.67;;;1.50;;
20002;SDS011;10162;41.600;23.806;2023-08-08T08:22:20;1.73;;;1.63;;
20002;SDS011;10162;41.600;23.806;2023-08-08T08:24:47;1.88;;;1.60;;
20002;SDS011;10162;41.600;23.806;2023-08-08T08:27:12;2.10;;;1.60;;
20002;SDS011;10162;41.600;23.806;2023-08-08T08:29:39;2.30;;;1.30;;
20002;SDS011;10162;41.600;23.806;2023-08-08T08:32:05;3.88;;;1.65;;
20002;SDS011;10162;41.600;23.806;2023-08-08T08:34:31;1.80;;;1.60;;
20002;SDS011;10162;41.600;23.806;2023-08-08T08:36:56;1.70;;;1.60;;
20002;SDS011;10162;41.600;23.806;2023-08-08T08:39:22;2.35;;;1.60;;
20002;SDS011;10162;41.600;23.806;2023-08-08T08:41:49;1.60;;;1.50;;
20002;SDS011;10162;41.600;23.806;2023-08-08T08:44:17;1.50;;;1.40;;
20002;SDS011;10162;41.600;23.806;2023-08-08T08:46:43;2.92;;;1.40;;
20002;SDS011;10162;41.600;23.806;2023-08-08T08:49:13;2.33;;;1.70;;
20002;SDS011;10162;41.600;23.806;2023-08-08T08:51:39;2.95;;;2.35;;
20002;SDS011;10162;41.600;23.806;2023-08-08T08:54:07;1.80;;;1.67;;
20002;SDS011;10162;41.600;23.806;2023-08-08T08:56:32;2.38;;;1.73;;
20002;SDS011;10162;41.600;23.806;2023-08-08T08:58:59;1.58;;;1.48;;
20002;SDS011;10162;41.600;23.806;2023-08-08T09:01:25;1.67;;;1.38;;
20002;SDS011;10162;41.600;23.806;2023-08-08T09:03:54;1.55;;;1.20;;
20002;SDS011;10162;41.600;23.806;2023-08-08T09:06:20;1.45;;;1.30;;
20002;SDS011;10162;41.600;23.806;2023-08-08T09:08:49;1.75;;;1.25;;
20002;SDS011;10162;41.600;23.806;2023-08-08T09:11:16;1.63;;;1.52;;
20002;SDS011;10162;41.600;23.806;2023-08-08T09:13:41;1.63;;;1.40;;
20002;SDS011;10162;41.600;23.806;2023-08-08T09:16:07;1.48;;;1.38;;
20002;SDS011;10162;41.600;23.806;2023-08-08T09:18:34;3.53;;;1.70;;
20002;SDS011;10162;41.600;23.806;2023-08-08T09:21:03;1.38;;;1.20;;
20002;SDS011;10162;41.600;23.806;2023-08-08T09:23:30;2.55;;;1.45;;
20002;SDS011;10162;41.600;23.806;2023-08-08T09:25:56;2.00;;;1.58;;
20002;SDS011;10162;41.600;23.806;2023-08-08T09:28:22;1.75;;;1.60;;
20002;SDS011;10162;41.600;23.806;2023-08-08T09:30:48;1.50;;;1.40;;
20002;SDS011;10162;41.600;23.806;2023-08-08T09:33:17;1.55;;;1.10;;
20002;SDS011;10162;41.600;23.806;2023-08-08T09:35:43;1.38;;;1.27;;
20002;SDS011;10162;41.600;23.806;2023-08-08T09:38:10;2.70;;;1.55;;
20002;SDS011;10162;41.600;23.806;2023-08-08T09:40:36;1.70;;;1.60;;
20002;SDS011;10162;41.600;23.806;2023-08-08T09:43:01;1.98;;;1.65;;
20002;SDS011;10162;41.600;23.806;2023-08-08T09:45:35;2.75;;;1.60;;
20002;SDS011;10162;41.600;23.806;2023-08-08T09:48:02;1.40;;;1.30;;
20002;SDS011;10162;41.600;23.806;2023-08-08T09:50:28;1.70;;;1.60;;
20002;SDS011;10162;41.600;23.806;2023-08-08T09:52:56;1.50;;;1.40;;
20002;SDS011;10162;41.600;23.806;2023-08-08T09:55:22;1.92;;;1.73;;
20002;SDS011;10162;41.600;23.806;2023-08-08T09:57:50;1.60;;;1.50;;
20002;SDS011;10162;41.600;23.806;2023-08-08T10:00:18;2.40;;;1.80;;
20002;SDS011;10162;41.600;23.806;2023-08-08T10:02:46;3.00;;;1.90;;
20002;SDS011;10162;41.600;23.806;2023-08-08T10:05:13;1.58;;;1.48;;
20002;SDS011;10162;41.600;23.806;2023-08-08T10:07:41;2.17;;;1.60;;
20002;SDS011;10162;41.600;23.806;2023-08-08T10:10:10;1.83;;;1.73;;
20002;SDS011;10162;41.600;23.806;2023-08-08T10:12:39;1.60;;;1.50;;
20002;SDS011;10162;41.600;23.806;2023-08-08T10:15:07;3.25;;;2.08;;
20002;SDS011;10162;41.600;23.806;2023-08-08T10:17:35;1.95;;;1.70;;
20002;SDS011;10162;41.600;23.806;2023-08-08T10:20:08;2.20;;;1.90;;
20002;SDS011;10162;41.600;23.806;2023-08-08T10:22:37;6.57;;;1.83;;
20002;SDS011;10162;41.600;23.806;2023-08-08T10:25:07;2.17;;;1.98;;
20002;SDS011;10162;41.600;23.806;2023-08-08T10:27:34;6.50;;;2.17;;
20002;SDS011;10162;41.600;23.806;2023-08-08T10:30:04;2.30;;;2.10;;
20002;SDS011;10162;41.600;23.806;2023-08-08T10:32:40;2.22;;;2.13;;
20002;SDS011;10162;41.600;23.806;2023-08-08T10:35:11;2.22;;;2.10;;
20002;SDS011;10162;41.600;23.806;2023-08-08T10:37:37;2.30;;;2.08;;
20002;SDS011;10162;41.600;23.806;2023-08-08T10:40:05;2.90;;;1.98;;
20002;SDS011;10162;41.600;23.806;2023-08-08T10:42:43;3.22;;;2.33;;
20002;SDS011;10162;41.600;23.806;2023-08-08T10:45:12;5.32;;;2.17;;
20002;SDS011;10162;41.600;23.806;2023-08-08T10:47:39;2.00;;;1.90;;
20002;SDS011;10162;41.600;23.806;2023-08-08T10:50:07;2.63;;;2.40;;
20002;SDS011;10162;41.600;23.806;2023-08-08T10:55:22;2.10;;;2.00;;
20002;SDS011;10162;41.600;23.806;2023-08-08T10:57:53;2.20;;;2.00;;
20002;SDS011;10162;41.600;23.806;2023-08-08T11:00:24;3.55;;;2.05;;
20002;SDS011;10162;41.600;23.806;2023-08-08T11:05:38;3.17;;;2.30;;
20002;SDS011;10162;41.600;23.806;2023-08-08T11:08:05;4.35;;;1.90;;
20002;SDS011;10162;41.600;23.806;2023-08-08T11:10:37;3.97;;;2.20;;
20002;SDS011;10162;41.600;23.806;2023-08-08T11:13:14;2.53;;;2.33;;
20002;SDS011;10162;41.600;23.806;2023-08-08T11:15:41;3.05;;;2.28;;
20002;SDS011;10162;41.600;23.806;2023-08-08T11:18:07;2.38;;;1.98;;
20002;SDS011;10162;41.600;23.806;2023-08-08T11:20:34;3.85;;;2.42;;
20002;SDS011;10162;41.600;23.806;2023-08-08T11:23:03;4.43;;;1.90;;
20002;SDS011;10162;41.600;23.806;2023-08-08T11:25:36;2.05;;;1.90;;
20002;SDS011;10162;41.600;23.806;2023-08-08T11:28:04;2.15;;;2.00;;
20002;SDS011;10162;41.600;23.806;2023-08-08T11:30:31;2.85;;;1.90;;
20002;SDS011;10162;41.600;23.806;2023-08-08T11:35:50;1.60;;;1.50;;
20002;SDS011;10162;41.600;23.806;2023-08-08T11:38:16;2.33;;;1.73;;
20002;SDS011;10162;41.600;23.806;2023-08-08T11:40:43;4.65;;;2.10;;
20002;SDS011;10162;41.600;23.806;2023-08-08T11:43:10;2.15;;;1.88;;
20002;SDS011;10162;41.600;23.806;2023-08-08T11:45:37;1.90;;;1.40;;
20002;SDS011;10162;41.600;23.806;2023-08-08T11:48:07;1.80;;;1.70;;
20002;SDS011;10162;41.600;23.806;2023-08-08T11:50:36;4.78;;;2.10;;
20002;SDS011;10162;41.600;23.806;2023-08-08T11:53:02;2.85;;;1.95;;
20002;SDS011;10162;41.600;23.806;2023-08-08T11:55:30;2.33;;;1.80;;
20002;SDS011;10162;41.600;23.806;2023-08-08T11:57:56;2.30;;;2.10;;
20002;SDS011;10162;41.600;23.806;2023-08-08T12:00:28;3.25;;;1.90;;
20002;SDS011;10162;41.600;23.806;2023-08-08T12:02:58;2.38;;;1.92;;
20002;SDS011;10162;41.600;23.806;2023-08-08T12:05:26;1.88;;;1.67;;
20002;SDS011;10162;41.600;23.806;2023-08-08T12:07:53;3.05;;;1.90;;
20002;SDS011;10162;41.600;23.806;2023-08-08T12:10:19;2.15;;;1.67;;
20002;SDS011;10162;41.600;23.806;2023-08-08T12:12:56;2.97;;;2.08;;
20002;SDS011;10162;41.600;23.806;2023-08-08T12:15:34;2.88;;;2.00;;
20002;SDS011;10162;41.600;23.806;2023-08-08T12:18:01;2.95;;;1.85;;
20002;SDS011;10162;41.600;23.806;2023-08-08T12:20:28;1.85;;;1.65;;
20002;SDS011;10162;41.600;23.806;2023-08-08T12:22:55;1.83;;;1.73;;
20002;SDS011;10162;41.600;23.806;2023-08-08T12:25:24;1.77;;;1.67;;
20002;SDS011;10162;41.600;23.806;2023-08-08T12:27:49;2.13;;;1.75;;
20002;SDS011;10162;41.600;23.806;2023-08-08T12:30:15;3.50;;;1.95;;
20002;SDS011;10162;41.600;23.806;2023-08-08T12:32:41;2.92;;;1.73;;
20002;SDS011;10162;41.600;23.806;2023-08-08T12:35:07;3.40;;;2.10;;
20002;SDS011;10162;41.600;23.806;2023-08-08T12:37:33;5.03;;;2.60;;
20002;SDS011;10162;41.600;23.806;2023-08-08T12:39:58;3.28;;;2.00;;
20002;SDS011;10162;41.600;23.806;2023-08-08T12:42:25;2.17;;;1.80;;
20002;SDS011;10162;41.600;23.806;2023-08-08T12:44:54;3.15;;;2.17;;
20002;SDS011;10162;41.600;23.806;2023-08-08T12:47:23;3.88;;;2.33;;
20002;SDS011;10162;41.600;23.806;2023-08-08T12:49:49;2.10;;;1.90;;
20002;SDS011;10162;41.600;23.806;2023-08-08T12:52:15;2.45;;;2.10;;
20002;SDS011;10162;41.600;23.806;2023-08-08T12:54:43;4.30;;;1.95;;
20002;SDS011;10162;41.600;23.806;2023-08-08T12:57:12;2.25;;;1.83;;
20002;SDS011;10162;41.600;23.806;2023-08-08T12:59:38;4.05;;;2.05;;
20002;SDS011;10162;41.600;23.806;2023-08-08T13:02:03;2.35;;;2.13;;
20002;SDS011;10162;41.600;23.806;2023-08-08T13:04:29;2.40;;;2.20;;
20002;SDS011;10162;41.600;23.806;2023-08-08T13:06:55;2.50;;;2.30;;
20002;SDS011;10162;41.600;23.806;2023-08-08T13:09:21;2.60;;;2.40;;
20002;SDS011;10162;41.600;23.806;2023-08-08T13:11:50;3.45;;;2.65;;
20002;SDS011;10162;41.600;23.806;2023-08-08T13:14:16;2.17;;;1.98;;
20002;SDS011;10162;41.600;23.806;2023-08-08T13:16:42;2.92;;;2.13;;
20002;SDS011;10162;41.600;23.806;2023-08-08T13:19:07;3.47;;;2.33;;
20002;SDS011;10162;41.600;23.806;2023-08-08T13:21:33;2.45;;;2.03;;
20002;SDS011;10162;41.600;23.806;2023-08-08T13:23:59;2.50;;;2.30;;
20002;SDS011;10162;41.600;23.806;2023-08-08T13:26:27;3.83;;;3.03;;
20002;SDS011;10162;41.600;23.806;2023-08-08T13:28:52;2.67;;;2.47;;
20002;SDS011;10162;41.600;23.806;2023-08-08T13:31:22;2.90;;;2.45;;
20002;SDS011;10162;41.600;23.806;2023-08-08T13:33:48;2.05;;;1.92;;
20002;SDS011;10162;41.600;23.806;2023-08-08T13:36:14;2.40;;;2.20;;
20002;SDS011;10162;41.600;23.806;2023-08-08T13:38:41;2.83;;;2.50;;
20002;SDS011;10162;41.600;23.806;2023-08-08T13:41:24;2.58;;;2.35;;
20002;SDS011;10162;41.600;23.806;2023-08-08T13:43:50;4.50;;;2.28;;
20002;SDS011;10162;41.600;23.806;2023-08-08T13:46:15;3.75;;;2.05;;
20002;SDS011;10162;41.600;23.806;2023-08-08T13:48:43;3.63;;;2.28;;
20002;SDS011;10162;41.600;23.806;2023-08-08T13:51:08;4.22;;;2.65;;
20002;SDS011;10162;41.600;23.806;2023-08-08T13:53:36;3.28;;;2.60;;
20002;SDS011;10162;41.600;23.806;2023-08-08T13:58:57;5.10;;;2.28;;
20002;SDS011;10162;41.600;23.806;2023-08-08T14:03:53;5.30;;;3.70;;
20002;SDS011;10162;41.600;23.806;2023-08-08T14:06:19;3.17;;;2.75;;
20002;SDS011;10162;41.600;23.806;2023-08-08T14:08:45;2.65;;;2.40;;
20002;SDS011;10162;41.600;23.806;2023-08-08T14:14:02;2.42;;;2.10;;
20002;SDS011;10162;41.600;23.806;2023-08-08T14:16:37;2.63;;;2.42;;
20002;SDS011;10162;41.600;23.806;2023-08-08T14:19:03;3.35;;;2.00;;
20002;SDS011;10162;41.600;23.806;2023-08-08T14:24:23;3.38;;;2.20;;
20002;SDS011;10162;41.600;23.806;2023-08-08T14:26:49;3.92;;;2.40;;
20002;SDS011;10162;41.600;23.806;2023-08-08T14:29:15;2.50;;;2.30;;
20002;SDS011;10162;41.600;23.806;2023-08-08T14:34:43;2.33;;;2.13;;
20002;SDS011;10162;41.600;23.806;2023-08-08T14:37:09;3.50;;;2.38;;
20002;SDS011;10162;41.600;23.806;2023-08-08T14:42:06;2.20;;;2.10;;
20002;SDS011;10162;41.600;23.806;2023-08-08T14:47:01;2.60;;;2.40;;
20002;SDS011;10162;41.600;23.806;2023-08-08T14:49:27;3.60;;;2.30;;
20002;SDS011;10162;41.600;23.806;2023-08-08T14:52:00;2.55;;;2.35;;
20002;SDS011;10162;41.600;23.806;2023-08-08T14:54:27;2.30;;;2.05;;
20002;SDS011;10162;41.600;23.806;2023-08-08T14:56:52;3.17;;;2.25;;
20002;SDS011;10162;41.600;23.806;2023-08-08T14:59:18;2.10;;;2.00;;
20002;SDS011;10162;41.600;23.806;2023-08-08T15:01:44;2.30;;;2.20;;
20002;SDS011;10162;41.600;23.806;2023-08-08T15:06:58;2.78;;;1.92;;
20002;SDS011;10162;41.600;23.806;2023-08-08T15:09:24;3.53;;;1.85;;
20002;SDS011;10162;41.600;23.806;2023-08-08T15:11:59;2.30;;;2.10;;
20002;SDS011;10162;41.600;23.806;2023-08-08T15:14:26;3.17;;;2.10;;
20002;SDS011;10162;41.600;23.806;2023-08-08T15:16:52;2.42;;;2.00;;
20002;SDS011;10162;41.600;23.806;2023-08-08T15:19:20;2.40;;;2.20;;
20002;SDS011;10162;41.600;23.806;2023-08-08T15:22:03;1.92;;;1.70;;
20002;SDS011;10162;41.600;23.806;2023-08-08T15:24:30;3.50;;;1.83;;
20002;SDS011;10162;41.600;23.806;2023-08-08T15:26:56;2.10;;;2.00;;
20002;SDS011;10162;41.600;23.806;2023-08-08T15:29:21;2.00;;;1.90;;
20002;SDS011;10162;41.600;23.806;2023-08-08T15:31:47;3.35;;;1.95;;
20002;SDS011;10162;41.600;23.806;2023-08-08T15:34:13;2.05;;;1.95;;
20002;SDS011;10162;41.600;23.806;2023-08-08T15:36:39;2.30;;;2.10;;
20002;SDS011;10162;41.600;23.806;2023-08-08T15:39:04;1.80;;;1.70;;
20002;SDS011;10162;41.600;23.806;2023-08-08T15:41:30;3.60;;;1.80;;
20002;SDS011;10162;41.600;23.806;2023-08-08T15:43:57;18.85;;;2.33;;
20002;SDS011;10162;41.600;23.806;2023-08-08T15:46:32;3.03;;;1.73;;
20002;SDS011;10162;41.600;23.806;2023-08-08T15:48:58;2.20;;;2.00;;
20002;SDS011;10162;41.600;23.806;2023-08-08T15:51:24;1.98;;;1.83;;
20002;SDS011;10162;41.600;23.806;2023-08-08T15:53:56;3.38;;;1.73;;
20002;SDS011;10162;41.600;23.806;2023-08-08T15:56:21;3.40;;;2.20;;
20002;SDS011;10162;41.600;23.806;2023-08-08T15:58:49;2.00;;;1.80;;
20002;SDS011;10162;41.600;23.806;2023-08-08T16:01:15;1.80;;;1.70;;
20002;SDS011;10162;41.600;23.806;2023-08-08T16:03:41;1.67;;;1.58;;